createdAt,value
2018-07-05T00:00:30.556Z,9.10
2018-07-05T00:03:09.996Z,9.28
2018-07-05T00:05:49.630Z,8.90
2018-07-05T00:08:29.271Z,10.30
2018-07-05T00:11:08.893Z,9.00
2018-07-05T00:13:48.503Z,10.27
2018-07-05T00:16:28.122Z,8.87
2018-07-05T00:19:07.687Z,10.08
2018-07-05T00:21:47.295Z,10.20
2018-07-05T00:24:26.827Z,10.00
2018-07-05T00:27:06.379Z,10.32
2018-07-05T00:29:46.025Z,9.73
2018-07-05T00:32:25.541Z,9.70
2018-07-05T00:35:05.158Z,10.63
2018-07-05T00:37:44.659Z,10.83
2018-07-05T00:40:24.351Z,11.00
2018-07-05T00:43:03.874Z,9.53
2018-07-05T00:45:43.481Z,10.33
2018-07-05T00:48:23.084Z,11.30
2018-07-05T00:51:02.833Z,11.13
2018-07-05T00:53:42.309Z,11.20
2018-07-05T00:56:21.859Z,11.37
2018-07-05T00:59:01.451Z,11.73
2018-07-05T01:01:41.117Z,12.33
2018-07-05T01:04:20.759Z,11.10
2018-07-05T01:07:00.419Z,11.08
2018-07-05T01:09:40.072Z,11.83
2018-07-05T01:12:19.675Z,11.35
2018-07-05T01:14:59.281Z,12.20
2018-07-05T01:17:38.683Z,12.20
2018-07-05T01:20:18.414Z,11.83
2018-07-05T01:22:57.919Z,12.85
2018-07-05T01:25:37.488Z,12.63
2018-07-05T01:28:17.281Z,11.90
2018-07-05T01:30:57.091Z,13.47
2018-07-05T01:33:36.663Z,11.70
2018-07-05T01:36:16.262Z,11.40
2018-07-05T01:38:55.942Z,12.40
2018-07-05T01:41:35.402Z,12.60
2018-07-05T01:44:14.964Z,13.43
2018-07-05T01:46:54.575Z,13.50
2018-07-05T01:49:34.224Z,14.13
2018-07-05T01:52:14.213Z,13.80
2018-07-05T01:54:54.322Z,14.33
2018-07-05T01:57:34.577Z,14.00
2018-07-05T02:00:14.340Z,12.80
2018-07-05T02:02:54.676Z,13.90
2018-07-05T02:05:34.955Z,14.75
2018-07-05T02:08:14.499Z,14.63
2018-07-05T02:10:54.149Z,13.97
2018-07-05T02:13:33.610Z,13.47
2018-07-05T02:16:13.288Z,15.83
2018-07-05T02:18:52.912Z,13.40
2018-07-05T02:21:32.537Z,15.08
2018-07-05T02:24:12.277Z,15.73
2018-07-05T02:26:52.097Z,14.60
2018-07-05T02:29:31.678Z,14.33
2018-07-05T02:32:11.534Z,13.53
2018-07-05T02:34:51.053Z,14.43
2018-07-05T02:37:35.752Z,14.53
2018-07-05T02:40:15.342Z,14.60
2018-07-05T02:42:54.907Z,13.23
2018-07-05T02:45:34.460Z,13.55
2018-07-05T02:48:14.013Z,14.00
2018-07-05T02:50:53.406Z,13.10
2018-07-05T02:53:33.085Z,14.47
2018-07-05T02:56:12.632Z,14.07
2018-07-05T02:58:52.369Z,12.80
2018-07-05T03:01:31.823Z,9.83
2018-07-05T03:04:11.519Z,10.60
2018-07-05T03:06:51.177Z,8.85
2018-07-05T03:09:30.856Z,8.93
2018-07-05T03:12:10.327Z,10.47
2018-07-05T03:14:49.984Z,10.80
2018-07-05T03:17:29.447Z,10.97
2018-07-05T03:20:09.461Z,9.98
2018-07-05T03:22:48.919Z,11.33
2018-07-05T03:25:28.641Z,10.57
2018-07-05T03:28:08.161Z,10.28
2018-07-05T03:30:47.645Z,10.88
2018-07-05T03:33:27.057Z,10.70
2018-07-05T03:36:06.603Z,10.70
2018-07-05T03:38:46.233Z,10.87
2018-07-05T03:41:26.164Z,9.67
2018-07-05T03:44:05.634Z,9.80
2018-07-05T03:46:45.196Z,9.87
2018-07-05T03:49:24.942Z,10.50
2018-07-05T03:52:04.469Z,11.93
2018-07-05T03:54:43.931Z,12.30
2018-07-05T03:57:23.476Z,12.10
2018-07-05T04:00:03.016Z,13.63
2018-07-05T04:02:42.696Z,13.53
2018-07-05T04:05:22.288Z,13.50
2018-07-05T04:08:01.696Z,13.30
2018-07-05T04:10:41.243Z,16.17
2018-07-05T04:13:20.747Z,13.87
2018-07-05T04:16:00.319Z,13.73
2018-07-05T04:22:22.249Z,15.20
2018-07-05T04:25:01.949Z,14.40
2018-07-05T04:27:41.545Z,13.70
2018-07-05T04:30:21.052Z,14.23
2018-07-05T04:33:00.719Z,14.70
2018-07-05T04:35:40.203Z,16.00
2018-07-05T04:38:19.816Z,14.20
2018-07-05T04:41:00.275Z,13.77
2018-07-05T04:43:39.979Z,15.00
2018-07-05T04:46:19.488Z,14.57
2018-07-05T04:48:59.160Z,25.23
2018-07-05T04:51:39.008Z,20.30
2018-07-05T04:54:18.733Z,15.70
2018-07-05T04:56:58.128Z,13.93
2018-07-05T04:59:37.630Z,14.68
2018-07-05T05:02:17.434Z,15.73
2018-07-05T05:04:56.916Z,14.57
2018-07-05T05:07:36.471Z,14.03
2018-07-05T05:10:16.095Z,13.10
2018-07-05T05:12:55.591Z,14.60
2018-07-05T05:15:35.498Z,14.13
2018-07-05T05:18:15.124Z,14.80
2018-07-05T05:20:54.751Z,15.27
2018-07-05T05:23:34.275Z,15.20
2018-07-05T05:26:13.843Z,15.63
2018-07-05T05:28:53.538Z,14.90
2018-07-05T05:31:33.023Z,15.40
2018-07-05T05:34:12.545Z,15.53
2018-07-05T05:36:52.170Z,15.83
2018-07-05T05:39:31.784Z,17.07
2018-07-05T05:42:11.340Z,17.20
2018-07-05T05:44:50.959Z,16.10
2018-07-05T05:47:30.607Z,18.87
2018-07-05T05:50:10.046Z,22.73
2018-07-05T05:52:49.550Z,20.93
2018-07-05T05:55:29.224Z,18.93
2018-07-05T05:58:08.678Z,55.00
2018-07-05T06:00:48.176Z,20.50
2018-07-05T06:03:27.824Z,17.13
2018-07-05T06:06:07.307Z,17.93
2018-07-05T06:08:46.960Z,19.27
2018-07-05T06:11:26.550Z,17.57
2018-07-05T06:14:06.206Z,18.70
2018-07-05T06:16:45.865Z,19.53
2018-07-05T06:19:25.271Z,18.70
2018-07-05T06:22:04.782Z,18.90
2018-07-05T06:24:44.479Z,18.00
2018-07-05T06:27:24.156Z,18.53
2018-07-05T06:30:03.686Z,19.60
2018-07-05T06:32:43.176Z,18.90
2018-07-05T06:35:22.671Z,18.50
2018-07-05T06:38:02.340Z,18.10
2018-07-05T06:40:42.017Z,17.57
2018-07-05T06:43:21.524Z,17.50
2018-07-05T06:46:01.123Z,17.53
2018-07-05T06:48:40.648Z,16.00
2018-07-05T06:51:20.267Z,17.02
2018-07-05T06:53:59.903Z,17.93
2018-07-05T06:56:39.437Z,16.00
2018-07-05T06:59:19.059Z,13.93
2018-07-05T07:01:58.739Z,14.70
2018-07-05T07:04:38.435Z,15.23
2018-07-05T07:07:18.119Z,14.20
2018-07-05T07:09:57.728Z,14.33
2018-07-05T07:12:37.227Z,15.08
2018-07-05T07:15:16.841Z,14.90
2018-07-05T07:17:56.477Z,14.03
2018-07-05T07:20:36.267Z,13.33
2018-07-05T07:23:15.696Z,14.63
2018-07-05T07:25:55.290Z,13.47
2018-07-05T07:28:34.968Z,10.97
2018-07-05T07:31:14.521Z,12.67
2018-07-05T07:33:54.124Z,10.93
2018-07-05T07:36:33.723Z,9.40
2018-07-05T07:39:13.228Z,9.00
2018-07-05T07:41:45.358Z,10.50
2018-07-05T07:44:12.595Z,9.13
2018-07-05T07:46:39.839Z,10.43
2018-07-05T07:49:07.488Z,10.03
2018-07-05T07:51:34.714Z,9.37
2018-07-05T07:54:01.956Z,9.23
2018-07-05T07:56:29.232Z,10.30
2018-07-05T07:58:56.454Z,8.48
2018-07-05T08:01:23.692Z,8.90
2018-07-05T08:03:50.938Z,9.55
2018-07-05T08:06:18.185Z,8.30
2018-07-05T08:08:45.539Z,8.80
2018-07-05T08:11:12.757Z,9.63
2018-07-05T08:13:39.971Z,8.60
2018-07-05T08:16:07.235Z,9.00
2018-07-05T08:18:34.468Z,8.93
2018-07-05T08:21:01.738Z,9.38
2018-07-05T08:23:28.971Z,8.50
2018-07-05T08:25:56.210Z,9.24
2018-07-05T08:28:23.459Z,8.85
2018-07-05T08:30:50.671Z,8.80
2018-07-05T08:33:17.929Z,8.93
2018-07-05T08:35:45.148Z,8.30
2018-07-05T08:38:12.397Z,7.30
2018-07-05T08:40:42.663Z,8.00
2018-07-05T08:43:09.876Z,7.03
2018-07-05T08:45:37.151Z,7.20
2018-07-05T08:48:04.380Z,8.20
2018-07-05T08:50:31.678Z,7.97
2018-07-05T08:52:58.940Z,7.00
2018-07-05T08:55:26.150Z,7.77
2018-07-05T08:57:53.406Z,7.43
2018-07-05T09:00:20.628Z,6.30
2018-07-05T09:02:47.907Z,8.10
2018-07-05T09:05:15.202Z,6.63
2018-07-05T09:07:42.832Z,7.07
2018-07-05T09:10:10.067Z,6.30
2018-07-05T09:12:37.271Z,7.70
2018-07-05T09:15:04.512Z,6.20
2018-07-05T09:17:31.791Z,4.97
2018-07-05T09:19:59.010Z,5.50
2018-07-05T09:22:26.273Z,4.80
2018-07-05T09:24:54.304Z,5.78
2018-07-05T09:27:21.600Z,5.57
2018-07-05T09:29:48.842Z,4.10
2018-07-05T09:32:16.080Z,4.22
2018-07-05T09:34:43.310Z,3.90
2018-07-05T09:37:10.598Z,5.05
2018-07-05T09:39:37.817Z,3.57
2018-07-05T09:42:05.046Z,3.17
2018-07-05T09:44:32.326Z,3.57
2018-07-05T09:46:59.608Z,4.00
2018-07-05T09:49:26.812Z,3.50
2018-07-05T09:51:54.046Z,4.23
2018-07-05T09:54:21.276Z,4.00
2018-07-05T09:56:48.558Z,3.90
2018-07-05T09:59:17.751Z,3.90
2018-07-05T10:01:44.991Z,4.47
2018-07-05T10:04:12.219Z,4.00
2018-07-05T10:06:39.461Z,3.60
2018-07-05T10:09:06.896Z,3.90
2018-07-05T10:11:34.795Z,3.77
2018-07-05T10:14:02.009Z,4.10
2018-07-05T10:16:29.347Z,3.87
2018-07-05T10:18:56.615Z,3.43
2018-07-05T10:21:23.843Z,3.50
2018-07-05T10:23:51.071Z,3.60
2018-07-05T10:26:18.715Z,3.63
2018-07-05T10:28:58.167Z,3.47
2018-07-05T10:31:37.711Z,3.60
2018-07-05T10:34:04.926Z,3.60
2018-07-05T10:36:32.153Z,3.80
2018-07-05T10:38:59.406Z,3.90
2018-07-05T10:41:39.079Z,3.13
2018-07-05T10:44:18.731Z,3.60
2018-07-05T10:46:58.213Z,3.27
2018-07-05T10:49:37.768Z,3.00
2018-07-05T10:52:17.291Z,3.27
2018-07-05T10:54:56.964Z,3.83
2018-07-05T10:57:36.517Z,3.33
2018-07-05T11:00:16.066Z,2.90
2018-07-05T11:02:55.540Z,3.07
2018-07-05T11:05:35.327Z,2.87
2018-07-05T11:08:15.023Z,2.77
2018-07-05T11:10:54.622Z,2.87
2018-07-05T11:13:34.100Z,3.10
2018-07-05T11:16:13.540Z,2.53
2018-07-05T11:18:52.987Z,2.72
2018-07-05T11:21:32.639Z,2.67
2018-07-05T11:24:12.072Z,2.73
2018-07-05T11:26:51.559Z,2.90
2018-07-05T11:29:31.087Z,2.30
2018-07-05T11:32:10.740Z,2.27
2018-07-05T11:34:50.367Z,2.20
2018-07-05T11:37:29.908Z,2.90
2018-07-05T11:40:09.536Z,3.00
2018-07-05T11:42:48.928Z,2.30
2018-07-05T11:45:28.544Z,2.20
2018-07-05T11:48:08.211Z,1.80
2018-07-05T11:50:47.833Z,3.30
2018-07-05T11:53:27.244Z,2.20
2018-07-05T11:56:06.928Z,2.20
2018-07-05T11:58:46.515Z,2.60
2018-07-05T12:01:26.053Z,2.83
2018-07-05T12:04:05.704Z,2.97
2018-07-05T12:06:45.208Z,2.90
2018-07-05T12:09:25.809Z,2.65
2018-07-05T12:12:05.267Z,2.90
2018-07-05T12:14:44.875Z,2.72
2018-07-05T12:17:24.811Z,3.30
2018-07-05T12:20:04.330Z,2.77
2018-07-05T12:22:44.018Z,2.80
2018-07-05T12:25:23.738Z,2.70
2018-07-05T12:28:03.287Z,2.20
2018-07-05T12:30:42.796Z,2.30
2018-07-05T12:33:22.449Z,2.47
2018-07-05T12:36:01.993Z,1.70
2018-07-05T12:38:41.632Z,2.47
2018-07-05T12:41:21.288Z,2.30
2018-07-05T12:44:00.647Z,2.70
2018-07-05T12:46:40.176Z,2.37
2018-07-05T12:49:19.599Z,2.03
2018-07-05T12:51:59.211Z,1.87
2018-07-05T12:54:38.770Z,2.50
2018-07-05T12:57:18.412Z,1.90
2018-07-05T12:59:58.039Z,2.10
2018-07-05T13:02:37.591Z,1.90
2018-07-05T13:05:17.242Z,1.90
2018-07-05T13:07:56.743Z,2.17
2018-07-05T13:10:36.302Z,2.37
2018-07-05T13:13:15.863Z,2.03
2018-07-05T13:15:55.300Z,1.80
2018-07-05T13:18:34.968Z,1.60
2018-07-05T13:21:14.537Z,1.97
2018-07-05T13:23:54.183Z,2.00
2018-07-05T13:26:33.856Z,2.20
2018-07-05T13:29:13.511Z,2.20
2018-07-05T13:31:53.097Z,2.17
2018-07-05T13:34:32.566Z,1.90
2018-07-05T13:37:12.213Z,2.00
2018-07-05T13:39:51.865Z,1.93
2018-07-05T13:42:31.291Z,2.10
2018-07-05T13:45:10.707Z,1.70
2018-07-05T13:47:50.308Z,1.72
2018-07-05T13:50:29.770Z,2.40
2018-07-05T13:53:09.235Z,2.00
2018-07-05T13:55:48.703Z,2.20
2018-07-05T13:59:30.924Z,2.33
2018-07-05T14:02:10.444Z,1.83
2018-07-05T14:04:49.908Z,1.60
2018-07-05T14:07:29.504Z,1.40
2018-07-05T14:10:09.104Z,1.60
2018-07-05T14:12:48.773Z,1.47
2018-07-05T14:15:28.472Z,1.70
2018-07-05T14:18:07.951Z,1.70
2018-07-05T14:20:47.549Z,1.85
2018-07-05T14:23:27.084Z,1.70
2018-07-05T14:26:06.789Z,1.60
2018-07-05T14:28:46.427Z,1.67
2018-07-05T14:31:26.130Z,1.50
2018-07-05T14:34:05.740Z,1.97
2018-07-05T14:36:45.279Z,1.60
2018-07-05T14:39:24.915Z,1.67
2018-07-05T14:42:04.502Z,1.57
2018-07-05T14:44:44.086Z,1.43
2018-07-05T14:47:23.707Z,1.17
2018-07-05T14:50:03.112Z,2.00
2018-07-05T14:52:42.688Z,1.40
2018-07-05T14:55:22.167Z,1.40
2018-07-05T14:58:01.641Z,2.12
2018-07-05T15:00:41.223Z,1.77
2018-07-05T15:03:20.927Z,1.53
2018-07-05T15:06:00.527Z,1.80
2018-07-05T15:08:40.097Z,2.30
2018-07-05T15:11:19.631Z,2.00
2018-07-05T15:13:59.261Z,2.02
2018-07-05T15:16:38.887Z,1.80
2018-07-05T15:19:18.450Z,2.20
2018-07-05T15:21:58.111Z,2.00
2018-07-05T15:24:37.662Z,1.83
2018-07-05T15:27:17.250Z,2.00
2018-07-05T15:29:56.878Z,1.90
2018-07-05T15:32:36.535Z,2.20
2018-07-05T15:35:16.190Z,2.60
2018-07-05T15:37:55.773Z,2.10
2018-07-05T15:40:35.538Z,2.20
2018-07-05T15:43:15.058Z,2.07
2018-07-05T15:49:36.700Z,1.87
2018-07-05T15:52:16.239Z,1.93
2018-07-05T15:54:56.244Z,1.47
2018-07-05T15:57:35.840Z,1.73
2018-07-05T16:00:18.380Z,1.93
2018-07-05T16:02:58.078Z,1.97
2018-07-05T16:05:37.732Z,2.10
2018-07-05T16:08:17.258Z,1.97
2018-07-05T16:10:56.852Z,1.93
2018-07-05T16:13:36.336Z,1.97
2018-07-05T16:16:16.045Z,2.00
2018-07-05T16:18:56.801Z,2.50
2018-07-05T16:21:36.434Z,2.37
2018-07-05T16:24:16.046Z,2.17
2018-07-05T16:26:55.787Z,2.60
2018-07-05T16:29:35.364Z,2.50
2018-07-05T16:32:14.889Z,2.40
2018-07-05T16:34:54.632Z,2.60
2018-07-05T16:37:34.336Z,2.70
2018-07-05T16:40:13.789Z,2.90
2018-07-05T16:42:53.475Z,2.80
2018-07-05T16:45:33.131Z,2.67
2018-07-05T16:48:13.080Z,3.67
2018-07-05T16:50:52.765Z,3.57
2018-07-05T16:53:32.292Z,3.30
2018-07-05T16:56:12.000Z,3.43
2018-07-05T16:58:51.606Z,2.97
2018-07-05T17:01:31.079Z,3.00
2018-07-05T17:04:10.622Z,3.33
2018-07-05T17:06:50.201Z,3.70
2018-07-05T17:09:29.509Z,3.05
2018-07-05T17:12:09.209Z,3.00
2018-07-05T17:14:48.836Z,4.03
2018-07-05T17:17:28.314Z,3.47
2018-07-05T17:20:07.972Z,3.72
2018-07-05T17:22:47.367Z,3.10
2018-07-05T17:25:26.902Z,3.40
2018-07-05T17:28:06.512Z,3.60
2018-07-05T17:30:46.211Z,3.70
2018-07-05T17:33:25.867Z,3.70
2018-07-05T17:36:05.844Z,3.80
2018-07-05T17:38:45.292Z,3.00
2018-07-05T17:41:24.847Z,3.50
2018-07-05T17:44:04.368Z,4.03
2018-07-05T17:46:43.982Z,3.98
2018-07-05T17:49:23.562Z,3.63
2018-07-05T17:52:03.658Z,3.40
2018-07-05T17:54:43.150Z,3.00
2018-07-05T17:57:22.584Z,3.37
2018-07-05T18:00:03.555Z,3.37
2018-07-05T18:02:43.444Z,4.40
2018-07-05T18:05:23.211Z,3.83
2018-07-05T18:08:02.888Z,3.33
2018-07-05T18:10:42.251Z,3.67
2018-07-05T18:13:21.998Z,4.47
2018-07-05T18:16:01.571Z,4.07
2018-07-05T18:18:41.098Z,4.83
2018-07-05T18:21:20.504Z,5.87
2018-07-05T18:24:00.158Z,4.70
2018-07-05T18:26:39.786Z,4.40
2018-07-05T18:29:19.503Z,4.50
2018-07-05T18:31:59.011Z,4.43
2018-07-05T18:34:38.830Z,6.00
2018-07-05T18:37:18.460Z,4.60
2018-07-05T18:39:58.332Z,5.47
2018-07-05T18:42:37.882Z,4.90
2018-07-05T18:45:17.643Z,4.50
2018-07-05T18:47:57.231Z,4.83
2018-07-05T18:50:36.776Z,4.20
2018-07-05T18:53:16.331Z,4.13
2018-07-05T18:55:56.367Z,4.60
2018-07-05T18:58:35.964Z,4.90
2018-07-05T19:01:16.102Z,4.97
2018-07-05T19:03:56.039Z,5.60
2018-07-05T19:06:35.647Z,5.80
2018-07-05T19:09:15.292Z,5.10
2018-07-05T19:11:54.848Z,4.43
2018-07-05T19:14:34.505Z,5.10
2018-07-05T19:17:14.016Z,4.17
2018-07-05T19:19:54.293Z,4.77
2018-07-05T19:22:33.973Z,4.87
2018-07-05T19:25:13.890Z,4.53
2018-07-05T19:27:53.380Z,4.70
2018-07-05T19:30:32.866Z,4.35
2018-07-05T19:33:12.448Z,4.23
2018-07-05T19:35:52.236Z,4.50
2018-07-05T19:38:32.088Z,4.50
2018-07-05T19:41:11.587Z,5.23
2018-07-05T19:43:51.269Z,4.50
2018-07-05T19:46:31.680Z,4.17
2018-07-05T19:49:11.322Z,5.10
2018-07-05T19:51:50.741Z,5.73
2018-07-05T19:54:30.129Z,7.22
2018-07-05T19:57:09.744Z,6.03
2018-07-05T19:59:49.211Z,6.27
2018-07-05T20:02:28.890Z,6.08
2018-07-05T20:05:08.436Z,6.12
2018-07-05T20:07:48.167Z,5.53
2018-07-05T20:10:27.784Z,6.17
2018-07-05T20:13:07.525Z,5.60
2018-07-05T20:15:47.264Z,7.50
2018-07-05T20:18:26.608Z,6.37
2018-07-05T20:21:06.489Z,5.80
2018-07-05T20:23:45.863Z,5.87
2018-07-05T20:26:25.458Z,5.83
2018-07-05T20:29:05.012Z,6.57
2018-07-05T20:31:44.857Z,6.70
2018-07-05T20:34:24.427Z,5.73
2018-07-05T20:37:04.094Z,5.53
2018-07-05T20:39:43.553Z,5.17
2018-07-05T20:42:23.177Z,5.60
2018-07-05T20:45:02.764Z,6.20
2018-07-05T20:47:42.254Z,4.80
2018-07-05T20:50:21.824Z,5.57
2018-07-05T20:53:01.480Z,5.20
2018-07-05T20:55:41.387Z,5.95
2018-07-05T20:58:20.887Z,5.00
2018-07-05T21:01:00.319Z,5.10
2018-07-05T21:03:39.896Z,5.92
2018-07-05T21:06:19.309Z,4.83
2018-07-05T21:08:59.023Z,4.97
2018-07-05T21:11:38.555Z,5.73
2018-07-05T21:14:18.040Z,5.00
2018-07-05T21:16:57.596Z,5.37
2018-07-05T21:19:37.216Z,4.70
2018-07-05T21:22:16.739Z,4.90
2018-07-05T21:24:56.509Z,5.80
2018-07-05T21:27:36.052Z,4.50
2018-07-05T21:30:15.871Z,6.20
2018-07-05T21:32:55.342Z,6.03
2018-07-05T21:35:35.205Z,5.43
2018-07-05T21:38:14.737Z,6.47
2018-07-05T21:40:54.192Z,6.27
2018-07-05T21:43:33.763Z,8.33
2018-07-05T21:46:13.485Z,7.53
2018-07-05T21:48:53.092Z,6.87
2018-07-05T21:51:33.014Z,6.23
2018-07-05T21:54:12.528Z,7.13
2018-07-05T21:56:52.217Z,6.83
2018-07-05T21:59:31.786Z,5.13
2018-07-05T22:02:11.496Z,5.23
2018-07-05T22:04:50.975Z,5.40
2018-07-05T22:07:30.620Z,5.60
2018-07-05T22:10:10.315Z,5.00
2018-07-05T22:12:49.989Z,5.10
2018-07-05T22:15:29.479Z,5.17
2018-07-05T22:18:14.380Z,5.85
2018-07-05T22:20:59.295Z,5.57
2018-07-05T22:23:44.111Z,5.43
2018-07-05T22:26:28.897Z,4.90
2018-07-05T22:29:13.752Z,5.97
2018-07-05T22:31:56.375Z,5.57
2018-07-05T22:34:36.104Z,5.78
2018-07-05T22:37:15.831Z,6.57
2018-07-05T22:39:55.800Z,6.20
2018-07-05T22:42:35.837Z,6.20
2018-07-05T22:45:15.743Z,5.50
2018-07-05T22:47:55.243Z,6.67
2018-07-05T22:50:34.939Z,6.43
2018-07-05T22:53:14.555Z,7.20
2018-07-05T22:55:54.623Z,7.80
2018-07-05T22:58:34.700Z,7.00
2018-07-05T23:01:14.501Z,7.47
2018-07-05T23:03:55.439Z,7.27
2018-07-05T23:06:35.061Z,6.97
2018-07-05T23:09:14.920Z,8.90
2018-07-05T23:11:54.755Z,9.40
2018-07-05T23:14:34.428Z,7.27
2018-07-05T23:17:14.071Z,7.63
2018-07-05T23:19:53.550Z,7.58
2018-07-05T23:22:33.093Z,6.92
2018-07-05T23:25:12.729Z,6.80
2018-07-05T23:27:52.302Z,8.93
2018-07-05T23:30:31.856Z,7.87
2018-07-05T23:33:11.496Z,8.00
2018-07-05T23:35:51.019Z,8.35
2018-07-05T23:38:30.620Z,7.87
2018-07-05T23:41:10.134Z,8.17
2018-07-05T23:43:50.735Z,7.80
2018-07-05T23:46:30.251Z,8.20
2018-07-05T23:49:09.766Z,8.53
2018-07-05T23:51:49.355Z,7.60
2018-07-05T23:54:28.809Z,8.08
2018-07-05T23:57:08.277Z,8.00
2018-07-05T23:59:47.922Z,8.73
